Portada
METAR-TAF:

METAR-TAF

Aeropuertos :

Paraguaná, Venezuela

Aeropuerto Internacional Josefa Camejo

latitud: 11-47N, longitud: 070-09W, altitud: 23 m

METAR: falta

Hora: 22:01 (02:01 UTC)

Pronóstico

El informe se hizo hace 4 horas y 1 minutos, a las 22:00 UTC
Pronóstico válido del 28 a las 00 UTC al 29 a las 00 UTC
Viento 16 kt del este
Visibilidad 10 km o más
Escasas nubes a una altura de 2000 ft
Evolucionando progresivamente
del 28 a las 00 UTC al 28 a las 04 UTC
Viento 9 kt del este
Visibilidad 10 km o más
sin nubes por debajo de 1500 m y sin presencia de cumulonimbus.

TAF: SVJC 272200Z 2800/2900 09016KT 9999 FEW020 TX35/18Z TN25/08Z BECMG 2800/2804 08009KT CAVOK

Observaciones y pronósticos meteorológicos de más de 4000 aeropuertos (mensajes METAR y TAF).

Los puntos amarillos y rojos representan las estaciones disponibles.

Ponga el ratón en el punto deseado para ver el nombre de la estación.

Haga clic para ver las observaciones y los pronósticos meteorológicos.

Para cambiar el mapa : haga clic en los botones verdes con una cruz de color negro para hacer un zoom, en el botón verde con un guión para alejar o en las flechas verdes para mapas adyacentes.


METAR-TAF: